createdAt,value
2016-11-27T00:00:18.703Z,1006.53
2016-11-27T00:01:31.345Z,1006.51
2016-11-27T00:02:42.112Z,1006.52
2016-11-27T00:03:54.473Z,1006.49
2016-11-27T00:05:06.775Z,1006.48
2016-11-27T00:06:18.165Z,1006.41
2016-11-27T00:07:30.465Z,1006.38
2016-11-27T00:08:42.115Z,1006.41
2016-11-27T00:09:54.034Z,1006.38
2016-11-27T00:11:05.545Z,1006.33
2016-11-27T00:12:17.605Z,1006.35
2016-11-27T00:13:28.506Z,1006.28
2016-11-27T00:14:40.780Z,1006.27
2016-11-27T00:15:51.903Z,1006.23
2016-11-27T00:17:02.989Z,1006.24
2016-11-27T00:18:15.843Z,1006.16
2016-11-27T00:19:28.139Z,1006.16
2016-11-27T00:20:40.243Z,1006.13
2016-11-27T00:21:52.837Z,1006.16
2016-11-27T00:23:05.109Z,1006.1
2016-11-27T00:24:15.907Z,1006.11
2016-11-27T00:25:26.026Z,1006.09
2016-11-27T00:26:37.601Z,1006.1
2016-11-27T00:27:50.321Z,1006.03
2016-11-27T00:29:01.777Z,1006.02
2016-11-27T00:30:14.105Z,1006.02
2016-11-27T00:31:25.001Z,1005.99
2016-11-27T00:32:37.640Z,1005.96
2016-11-27T00:33:49.342Z,1005.95
2016-11-27T00:35:00.234Z,1005.96
2016-11-27T00:36:12.879Z,1005.97
2016-11-27T00:37:26.186Z,1005.86
2016-11-27T00:38:38.120Z,1005.86
2016-11-27T00:39:49.965Z,1005.84
2016-11-27T00:41:01.090Z,1005.8
2016-11-27T00:42:12.171Z,1005.8
2016-11-27T00:43:23.995Z,1005.81
2016-11-27T00:44:36.414Z,1005.74
2016-11-27T00:45:48.742Z,1005.74
2016-11-27T00:47:00.228Z,1005.7
2016-11-27T00:48:13.049Z,1005.7
2016-11-27T00:49:24.786Z,1005.67
2016-11-27T00:50:36.951Z,1005.64
2016-11-27T00:51:48.244Z,1005.63
2016-11-27T00:52:59.903Z,1005.62
2016-11-27T00:54:13.252Z,1005.57
2016-11-27T00:55:24.149Z,1005.5
2016-11-27T00:56:37.442Z,1005.52
2016-11-27T00:57:48.910Z,1005.49
2016-11-27T00:59:01.562Z,1005.44
2016-11-27T01:00:12.774Z,1005.43
2016-11-27T01:01:24.392Z,1005.4
2016-11-27T01:02:35.812Z,1005.4
2016-11-27T01:03:47.613Z,1005.42
2016-11-27T01:04:59.266Z,1005.39
2016-11-27T01:06:10.532Z,1005.38
2016-11-27T01:07:21.819Z,1005.39
2016-11-27T01:08:33.171Z,1005.36
2016-11-27T01:09:44.556Z,1005.33
2016-11-27T01:10:56.159Z,1005.33
2016-11-27T01:12:08.383Z,1005.32
2016-11-27T01:13:20.064Z,1005.3
2016-11-27T01:14:32.565Z,1005.27
2016-11-27T01:15:45.750Z,1005.25
2016-11-27T01:16:58.458Z,1005.25
2016-11-27T01:18:10.043Z,1005.26
2016-11-27T01:19:23.300Z,1005.26
2016-11-27T01:20:34.482Z,1005.21
2016-11-27T01:21:46.061Z,1005.19
2016-11-27T01:22:58.849Z,1005.19
2016-11-27T01:24:11.192Z,1005.17
2016-11-27T01:25:23.475Z,1005.23
2016-11-27T01:26:35.222Z,1005.18
2016-11-27T01:27:46.959Z,1005.16
2016-11-27T01:28:57.961Z,1005.15
2016-11-27T01:30:08.906Z,1005.12
2016-11-27T01:31:20.849Z,1005.08
2016-11-27T01:32:33.676Z,1005.08
2016-11-27T01:33:46.142Z,1005.08
2016-11-27T01:34:57.736Z,1005.05
2016-11-27T01:36:10.106Z,1005.04
2016-11-27T01:37:21.522Z,1005.01
2016-11-27T01:38:33.846Z,1004.98
2016-11-27T01:39:45.874Z,1004.99
2016-11-27T01:40:57.844Z,1004.94
2016-11-27T01:42:10.520Z,1004.96
2016-11-27T01:43:22.568Z,1004.94
2016-11-27T01:44:35.350Z,1004.94
2016-11-27T01:45:47.146Z,1004.93
2016-11-27T01:46:59.951Z,1004.93
2016-11-27T01:48:11.904Z,1004.91
2016-11-27T01:49:23.101Z,1004.94
2016-11-27T01:50:35.363Z,1004.91
2016-11-27T01:51:47.389Z,1004.91
2016-11-27T01:52:58.313Z,1004.85
2016-11-27T01:54:10.501Z,1004.88
2016-11-27T01:55:22.092Z,1004.89
2016-11-27T01:56:34.449Z,1004.83
2016-11-27T01:57:45.990Z,1004.78
2016-11-27T01:58:57.435Z,1004.76
2016-11-27T02:00:09.390Z,1004.72
2016-11-27T02:01:20.968Z,1004.67
2016-11-27T02:02:33.482Z,1004.68
2016-11-27T02:03:46.043Z,1004.67
2016-11-27T02:04:57.331Z,1004.63
2016-11-27T02:06:09.444Z,1004.64
2016-11-27T02:07:21.110Z,1004.64
2016-11-27T02:08:33.292Z,1004.69
2016-11-27T02:09:44.668Z,1004.77
2016-11-27T02:10:55.908Z,1004.79
2016-11-27T02:12:08.089Z,1004.79
2016-11-27T02:13:20.251Z,1004.82
2016-11-27T02:14:32.886Z,1004.84
2016-11-27T02:15:45.438Z,1004.88
2016-11-27T02:16:57.640Z,1005.01
2016-11-27T02:18:08.492Z,1005.02
2016-11-27T02:19:21.326Z,1005.13
2016-11-27T02:20:31.824Z,1005.18
2016-11-27T02:21:42.364Z,1005.27
2016-11-27T02:22:54.537Z,1005.36
2016-11-27T02:24:05.629Z,1005.51
2016-11-27T02:25:17.391Z,1005.62
2016-11-27T02:26:29.624Z,1005.65
2016-11-27T02:27:43.048Z,1005.72
2016-11-27T02:28:54.884Z,1005.5
2016-11-27T02:30:07.111Z,1005.76
2016-11-27T02:31:18.567Z,1005.74
2016-11-27T02:32:29.567Z,1005.74
2016-11-27T02:33:42.281Z,1005.78
2016-11-27T02:34:54.523Z,1005.8
2016-11-27T02:36:06.654Z,1005.81
2016-11-27T02:37:17.827Z,1005.83
2016-11-27T02:38:29.767Z,1005.77
2016-11-27T02:39:42.576Z,1005.8
2016-11-27T02:40:54.803Z,1005.81
2016-11-27T02:42:07.161Z,1005.81
2016-11-27T02:43:17.958Z,1005.81
2016-11-27T02:44:28.607Z,1005.76
2016-11-27T02:45:41.370Z,1005.73
2016-11-27T02:46:53.639Z,1005.72
2016-11-27T02:48:04.631Z,1005.76
2016-11-27T02:49:16.712Z,1005.73
2016-11-27T02:50:29.089Z,1005.72
2016-11-27T02:51:40.879Z,1005.68
2016-11-27T02:52:52.660Z,1005.68
2016-11-27T02:54:05.024Z,1005.71
2016-11-27T02:55:16.489Z,1005.69
2016-11-27T02:56:28.136Z,1005.7
2016-11-27T02:57:40.924Z,1005.73
2016-11-27T02:58:53.526Z,1005.73
2016-11-27T03:00:05.816Z,1005.71
2016-11-27T03:01:18.404Z,1005.73
2016-11-27T03:02:30.652Z,1005.75
2016-11-27T03:03:42.843Z,1005.73
2016-11-27T03:04:55.607Z,1005.75
2016-11-27T03:06:08.247Z,1005.8
2016-11-27T03:07:20.386Z,1005.8
2016-11-27T03:08:31.959Z,1005.81
2016-11-27T03:09:44.272Z,1005.79
2016-11-27T03:10:56.380Z,1005.82
2016-11-27T03:12:08.458Z,1005.81
2016-11-27T03:13:20.371Z,1005.81
2016-11-27T03:14:32.395Z,1005.88
2016-11-27T03:15:43.798Z,1005.85
2016-11-27T03:16:55.716Z,1005.83
2016-11-27T03:18:07.231Z,1005.8
2016-11-27T03:19:19.892Z,1005.88
2016-11-27T03:20:30.046Z,1005.89
2016-11-27T03:21:41.925Z,1005.85
2016-11-27T03:22:52.396Z,1005.87
2016-11-27T03:24:04.787Z,1005.88
2016-11-27T03:25:16.963Z,1005.88
2016-11-27T03:26:28.325Z,1005.91
2016-11-27T03:27:40.298Z,1005.93
2016-11-27T03:28:51.775Z,1005.93
2016-11-27T03:30:02.874Z,1005.97
2016-11-27T03:31:14.772Z,1005.93
2016-11-27T03:32:28.111Z,1005.98
2016-11-27T03:33:40.547Z,1006
2016-11-27T03:34:51.456Z,1005.96
2016-11-27T03:36:04.393Z,1005.98
2016-11-27T03:37:17.260Z,1005.99
2016-11-27T03:38:28.170Z,1006.04
2016-11-27T03:39:38.833Z,1006.06
2016-11-27T03:40:49.824Z,1006.09
2016-11-27T03:42:02.951Z,1006.07
2016-11-27T03:43:14.696Z,1006.09
2016-11-27T03:44:26.852Z,1006.11
2016-11-27T03:45:37.800Z,1006.1
2016-11-27T03:46:49.006Z,1006.14
2016-11-27T03:48:00.006Z,1006.12
2016-11-27T03:49:11.756Z,1006.1
2016-11-27T03:50:21.854Z,1006.17
2016-11-27T03:51:34.021Z,1006.11
2016-11-27T03:52:45.776Z,1006.05
2016-11-27T03:53:58.479Z,1006.14
2016-11-27T03:55:11.257Z,1006.1
2016-11-27T03:56:23.049Z,1006.08
2016-11-27T03:57:34.894Z,1006.15
2016-11-27T03:58:47.631Z,1006.16
2016-11-27T03:59:59.237Z,1006.17
2016-11-27T04:01:10.999Z,1006.16
2016-11-27T04:02:23.022Z,1006.2
2016-11-27T04:03:35.162Z,1006.2
2016-11-27T04:04:46.916Z,1006.2
2016-11-27T04:05:58.719Z,1006.21
2016-11-27T04:07:10.156Z,1006.22
2016-11-27T04:08:23.007Z,1006.19
2016-11-27T04:09:35.830Z,1006.21
2016-11-27T04:10:47.037Z,1006.17
2016-11-27T04:11:58.446Z,1006.24
2016-11-27T04:13:10.181Z,1006.2
2016-11-27T04:14:22.890Z,1006.21
2016-11-27T04:15:33.648Z,1006.21
2016-11-27T04:16:45.264Z,1006.17
2016-11-27T04:32:11.045Z,1006.19
2016-11-27T04:33:22.009Z,1006.19
2016-11-27T04:34:33.648Z,1006.18
2016-11-27T04:35:45.837Z,1006.19
2016-11-27T04:36:57.786Z,1006.19
2016-11-27T04:38:08.941Z,1006.2
2016-11-27T04:39:22.265Z,1006.2
2016-11-27T04:40:33.729Z,1006.2
2016-11-27T04:41:45.203Z,1006.22
2016-11-27T04:42:57.302Z,1006.26
2016-11-27T04:44:09.361Z,1006.28
2016-11-27T04:45:21.913Z,1006.3
2016-11-27T04:46:34.614Z,1006.31
2016-11-27T04:47:45.531Z,1006.33
2016-11-27T04:48:56.280Z,1006.35
2016-11-27T04:50:08.423Z,1006.33
2016-11-27T04:51:20.277Z,1006.36
2016-11-27T04:52:32.468Z,1006.35
2016-11-27T04:53:44.079Z,1006.36
2016-11-27T04:54:56.883Z,1006.36
2016-11-27T04:56:08.918Z,1006.32
2016-11-27T04:57:20.058Z,1006.35
2016-11-27T04:58:33.288Z,1006.29
2016-11-27T04:59:46.524Z,1006.28
2016-11-27T05:00:58.091Z,1006.25
2016-11-27T05:02:09.267Z,1006.24
2016-11-27T05:03:21.398Z,1006.21
2016-11-27T05:04:32.673Z,1006.23
2016-11-27T05:05:44.470Z,1006.23
2016-11-27T05:06:55.161Z,1006.23
2016-11-27T05:08:05.803Z,1006.22
2016-11-27T05:09:17.433Z,1006.23
2016-11-27T05:10:30.269Z,1006.25
2016-11-27T05:11:41.618Z,1006.22
2016-11-27T05:12:53.879Z,1006.19
2016-11-27T05:14:04.905Z,1006.27
2016-11-27T05:15:16.851Z,1006.27
2016-11-27T05:16:27.326Z,1006.23
2016-11-27T05:17:39.431Z,1006.3
2016-11-27T05:18:52.300Z,1006.3
2016-11-27T05:20:03.320Z,1006.3
2016-11-27T05:21:14.857Z,1006.31
2016-11-27T05:22:28.108Z,1006.32
2016-11-27T05:23:40.875Z,1006.3
2016-11-27T05:24:51.896Z,1006.32
2016-11-27T05:26:02.802Z,1006.28
2016-11-27T05:27:15.935Z,1006.31
2016-11-27T05:28:28.236Z,1006.31
2016-11-27T05:29:39.459Z,1006.29
2016-11-27T05:30:51.806Z,1006.35
2016-11-27T05:32:04.053Z,1006.35
2016-11-27T05:33:17.358Z,1006.37
2016-11-27T05:34:29.746Z,1006.35
2016-11-27T05:35:41.948Z,1006.34
2016-11-27T05:36:52.623Z,1006.34
2016-11-27T05:38:04.002Z,1006.34
2016-11-27T05:39:16.651Z,1006.36
2016-11-27T05:40:28.382Z,1006.35
2016-11-27T05:41:39.775Z,1006.33
2016-11-27T05:42:51.581Z,1006.33
2016-11-27T05:44:04.125Z,1006.36
2016-11-27T05:45:16.808Z,1006.34
2016-11-27T05:46:28.002Z,1006.36
2016-11-27T05:47:39.719Z,1006.38
2016-11-27T05:48:51.582Z,1006.38
2016-11-27T05:50:02.856Z,1006.37
2016-11-27T05:51:13.887Z,1006.37
2016-11-27T05:52:25.391Z,1006.4
2016-11-27T05:53:37.314Z,1006.43
2016-11-27T05:54:49.624Z,1006.39
2016-11-27T05:56:01.884Z,1006.39
2016-11-27T05:57:14.302Z,1006.44
2016-11-27T05:58:26.033Z,1006.44
2016-11-27T05:59:38.433Z,1006.43
2016-11-27T06:00:50.675Z,1006.44
2016-11-27T06:02:00.903Z,1006.45
2016-11-27T06:03:12.320Z,1006.45
2016-11-27T06:04:23.994Z,1006.46
2016-11-27T06:05:36.773Z,1006.45
2016-11-27T06:06:49.051Z,1006.48
2016-11-27T06:08:02.401Z,1006.48
2016-11-27T06:09:12.676Z,1006.42
2016-11-27T06:10:23.311Z,1006.45
2016-11-27T06:11:34.001Z,1006.47
2016-11-27T06:12:44.473Z,1006.47
2016-11-27T06:13:55.374Z,1006.47
2016-11-27T06:15:06.610Z,1006.46
2016-11-27T06:16:18.216Z,1006.5
2016-11-27T06:17:31.383Z,1006.47
2016-11-27T06:18:43.228Z,1006.51
2016-11-27T06:19:54.601Z,1006.51
2016-11-27T06:21:05.482Z,1006.51
2016-11-27T06:22:16.774Z,1006.53
2016-11-27T06:23:28.350Z,1006.53
2016-11-27T06:24:40.124Z,1006.57
2016-11-27T06:25:51.828Z,1006.53
2016-11-27T06:27:01.671Z,1006.55
2016-11-27T06:28:13.916Z,1006.6
2016-11-27T06:29:25.104Z,1006.57
2016-11-27T06:30:36.933Z,1006.61
2016-11-27T06:31:48.434Z,1006.63
2016-11-27T06:33:01.551Z,1006.62
2016-11-27T06:34:14.140Z,1006.64
2016-11-27T06:35:25.883Z,1006.65
2016-11-27T06:36:38.650Z,1006.63
2016-11-27T06:37:49.243Z,1006.63
2016-11-27T06:39:01.453Z,1006.65
2016-11-27T06:40:12.676Z,1006.6
2016-11-27T06:41:24.322Z,1006.64
2016-11-27T06:42:35.928Z,1006.61
2016-11-27T06:43:47.838Z,1006.62
2016-11-27T06:44:59.223Z,1006.65
2016-11-27T06:46:11.151Z,1006.66
2016-11-27T06:47:23.313Z,1006.63
2016-11-27T06:48:34.572Z,1006.64
2016-11-27T06:49:46.274Z,1006.58
2016-11-27T06:50:58.256Z,1006.6
2016-11-27T06:52:10.510Z,1006.58
2016-11-27T06:53:22.190Z,1006.55
2016-11-27T06:54:34.229Z,1006.53
2016-11-27T06:55:46.218Z,1006.56
2016-11-27T06:56:59.429Z,1006.56
2016-11-27T06:58:11.220Z,1006.54
2016-11-27T06:59:22.913Z,1006.52
2016-11-27T07:00:33.617Z,1006.51
2016-11-27T07:01:45.507Z,1006.51
2016-11-27T07:02:58.119Z,1006.56
2016-11-27T07:04:10.892Z,1006.56
2016-11-27T07:05:22.496Z,1006.58
2016-11-27T07:06:34.329Z,1006.62
2016-11-27T07:07:46.799Z,1006.66
2016-11-27T07:08:58.823Z,1006.69
2016-11-27T07:10:11.178Z,1006.68
2016-11-27T07:11:23.459Z,1006.7
2016-11-27T07:12:35.648Z,1006.66
2016-11-27T07:13:49.859Z,1006.66
2016-11-27T07:15:01.893Z,1006.66
2016-11-27T07:16:13.851Z,1006.68
2016-11-27T07:17:26.056Z,1006.66
2016-11-27T07:18:38.508Z,1006.69
2016-11-27T07:19:50.080Z,1006.67
2016-11-27T07:21:01.076Z,1006.65
2016-11-27T07:22:12.284Z,1006.69
2016-11-27T07:23:23.141Z,1006.7
2016-11-27T07:24:34.355Z,1006.7
2016-11-27T07:25:46.597Z,1006.74
2016-11-27T07:26:59.347Z,1006.77
2016-11-27T07:28:12.015Z,1006.77
2016-11-27T07:29:23.961Z,1006.77
2016-11-27T07:30:36.188Z,1006.78
2016-11-27T07:31:47.135Z,1006.8
2016-11-27T07:32:58.290Z,1006.83
2016-11-27T07:34:09.736Z,1006.88
2016-11-27T07:35:21.854Z,1006.88
2016-11-27T07:36:33.048Z,1006.87
2016-11-27T07:37:45.058Z,1006.88
2016-11-27T07:38:57.869Z,1006.9
2016-11-27T07:40:09.101Z,1006.92
2016-11-27T07:41:20.717Z,1006.95
2016-11-27T07:42:33.797Z,1006.94
2016-11-27T07:43:45.211Z,1006.96
2016-11-27T07:44:56.726Z,1006.97
2016-11-27T07:46:08.036Z,1006.97
2016-11-27T07:47:20.338Z,1006.98
2016-11-27T07:48:32.416Z,1006.99
2016-11-27T07:49:43.952Z,1007
2016-11-27T07:50:54.015Z,1007.07
2016-11-27T07:52:06.274Z,1007.04
2016-11-27T07:53:19.035Z,1007.08
2016-11-27T07:54:32.170Z,1007.11
2016-11-27T07:55:43.772Z,1007.1
2016-11-27T07:56:54.538Z,1007.16
2016-11-27T07:58:07.681Z,1007.13
2016-11-27T07:59:19.117Z,1007.14
2016-11-27T08:00:32.272Z,1007.18
2016-11-27T08:01:44.967Z,1007.2
2016-11-27T08:02:56.376Z,1007.17
2016-11-27T08:04:08.326Z,1007.22
2016-11-27T08:05:18.820Z,1007.24
2016-11-27T08:06:30.905Z,1007.19
2016-11-27T08:07:41.895Z,1007.23
2016-11-27T08:08:53.093Z,1007.24
2016-11-27T08:10:05.322Z,1007.23
2016-11-27T08:11:18.131Z,1007.26
2016-11-27T08:12:30.654Z,1007.27
2016-11-27T08:13:42.378Z,1007.27
2016-11-27T08:14:54.140Z,1007.3
2016-11-27T08:16:06.796Z,1007.27
2016-11-27T08:17:19.028Z,1007.28
2016-11-27T08:18:30.592Z,1007.28
2016-11-27T08:19:42.640Z,1007.26
2016-11-27T08:20:54.798Z,1007.25
2016-11-27T08:22:07.200Z,1007.21
2016-11-27T08:23:19.801Z,1007.24
2016-11-27T08:24:31.801Z,1007.24
2016-11-27T08:25:42.688Z,1007.23
2016-11-27T08:26:54.200Z,1007.22
2016-11-27T08:28:05.526Z,1007.2
2016-11-27T08:29:17.408Z,1007.25
2016-11-27T08:30:30.081Z,1007.34
2016-11-27T08:31:42.116Z,1007.37
2016-11-27T08:32:53.445Z,1007.37
2016-11-27T08:34:06.137Z,1007.34
2016-11-27T08:35:18.220Z,1007.33
2016-11-27T08:36:29.799Z,1007.31
2016-11-27T08:37:43.017Z,1007.33
2016-11-27T08:38:55.181Z,1007.32
2016-11-27T08:40:08.268Z,1007.35
2016-11-27T08:41:18.804Z,1007.43
2016-11-27T08:42:31.075Z,1007.42
2016-11-27T08:43:43.195Z,1007.4
2016-11-27T08:44:55.270Z,1007.41
2016-11-27T08:46:07.909Z,1007.42
2016-11-27T08:47:19.876Z,1007.45
2016-11-27T08:48:31.950Z,1007.46
2016-11-27T08:49:43.464Z,1007.42
2016-11-27T08:50:54.440Z,1007.41
2016-11-27T08:52:06.837Z,1007.49
2016-11-27T08:53:18.495Z,1007.47
2016-11-27T08:54:29.494Z,1007.47
2016-11-27T08:55:41.667Z,1007.49
2016-11-27T08:56:53.156Z,1007.61
2016-11-27T08:58:04.924Z,1007.64
2016-11-27T08:59:15.804Z,1007.62
2016-11-27T09:00:27.387Z,1007.53
2016-11-27T09:01:39.825Z,1007.53
2016-11-27T09:02:51.549Z,1007.57
2016-11-27T09:04:03.079Z,1007.56
2016-11-27T09:05:15.759Z,1007.52
2016-11-27T09:06:27.697Z,1007.52
2016-11-27T09:07:40.482Z,1007.54
2016-11-27T09:08:52.193Z,1007.54
2016-11-27T09:10:05.300Z,1007.52
2016-11-27T09:11:17.020Z,1007.55
2016-11-27T09:12:28.369Z,1007.53
2016-11-27T09:13:39.255Z,1007.54
2016-11-27T09:14:51.931Z,1007.55
2016-11-27T09:16:03.739Z,1007.55
2016-11-27T09:17:15.058Z,1007.66
2016-11-27T09:18:26.401Z,1007.67
2016-11-27T09:19:39.026Z,1007.75
2016-11-27T09:20:51.149Z,1007.62
2016-11-27T09:22:02.719Z,1007.78
2016-11-27T09:23:13.208Z,1007.59
2016-11-27T09:24:24.850Z,1007.75
2016-11-27T09:25:36.558Z,1007.64
2016-11-27T09:26:48.214Z,1007.58
2016-11-27T09:27:59.695Z,1007.63
2016-11-27T09:29:10.372Z,1007.66
2016-11-27T09:30:22.638Z,1007.62
2016-11-27T09:31:34.110Z,1007.6
2016-11-27T09:32:46.609Z,1007.59
2016-11-27T09:33:58.544Z,1007.53
2016-11-27T09:35:09.152Z,1007.55
2016-11-27T09:36:20.463Z,1007.58
2016-11-27T09:37:33.056Z,1007.54
2016-11-27T09:38:45.257Z,1007.55
2016-11-27T09:39:56.412Z,1007.54
2016-11-27T09:41:08.051Z,1007.56
2016-11-27T09:42:18.794Z,1007.52
2016-11-27T09:43:30.794Z,1007.44
2016-11-27T09:44:42.170Z,1007.41
2016-11-27T09:45:52.326Z,1007.42
2016-11-27T09:47:03.681Z,1007.39
2016-11-27T09:48:15.556Z,1007.42
2016-11-27T09:49:27.730Z,1007.44
2016-11-27T09:50:39.755Z,1007.41
2016-11-27T09:51:51.015Z,1007.43
2016-11-27T09:53:04.314Z,1007.43
2016-11-27T09:54:15.929Z,1007.48
2016-11-27T09:55:27.425Z,1007.51
2016-11-27T09:56:40.007Z,1007.49
2016-11-27T09:57:50.768Z,1007.42
2016-11-27T09:59:03.201Z,1007.44
2016-11-27T10:00:14.368Z,1007.45
2016-11-27T10:01:25.521Z,1007.44
2016-11-27T10:02:37.127Z,1007.45
2016-11-27T10:03:48.589Z,1007.44
2016-11-27T10:05:00.676Z,1007.42
2016-11-27T10:06:10.706Z,1007.45
2016-11-27T10:07:22.130Z,1007.4
2016-11-27T10:08:33.398Z,1007.38
2016-11-27T10:09:45.061Z,1007.45
2016-11-27T10:10:57.637Z,1007.46
2016-11-27T10:12:08.624Z,1007.45
2016-11-27T10:13:19.931Z,1007.45
2016-11-27T10:14:32.551Z,1007.37
2016-11-27T10:15:44.205Z,1007.42
2016-11-27T10:16:54.901Z,1007.4
2016-11-27T10:18:06.300Z,1007.41
2016-11-27T10:19:17.389Z,1007.36
2016-11-27T10:20:29.304Z,1007.38
2016-11-27T10:21:40.163Z,1007.39
2016-11-27T10:22:51.357Z,1007.37
2016-11-27T10:24:02.566Z,1007.39
2016-11-27T10:25:13.656Z,1007.36
2016-11-27T10:26:24.644Z,1007.31
2016-11-27T10:27:35.609Z,1007.32
2016-11-27T10:28:47.435Z,1007.29
2016-11-27T10:29:59.959Z,1007.3
2016-11-27T10:31:11.223Z,1007.3
2016-11-27T10:32:22.050Z,1007.34
2016-11-27T10:33:34.744Z,1007.3
2016-11-27T10:34:46.408Z,1007.33
2016-11-27T10:35:58.826Z,1007.36
2016-11-27T10:37:10.922Z,1007.32
2016-11-27T10:38:22.914Z,1007.32
2016-11-27T10:39:35.347Z,1007.33
2016-11-27T10:40:47.704Z,1007.32
2016-11-27T10:41:59.848Z,1007.35
2016-11-27T10:43:12.021Z,1007.34
2016-11-27T10:44:22.409Z,1007.28
2016-11-27T10:45:32.969Z,1007.27
2016-11-27T10:46:45.039Z,1007.33
2016-11-27T10:47:56.281Z,1007.29
2016-11-27T10:49:07.620Z,1007.29
2016-11-27T10:50:18.770Z,1007.24
2016-11-27T10:51:29.753Z,1007.17
2016-11-27T10:52:41.302Z,1007.18
2016-11-27T10:53:52.690Z,1007.14
2016-11-27T10:55:02.932Z,1007.17
2016-11-27T10:56:14.016Z,1007.13
2016-11-27T10:57:25.902Z,1007.14
2016-11-27T10:58:36.873Z,1007.15
2016-11-27T10:59:49.463Z,1007.1
2016-11-27T11:01:01.347Z,1007.07
2016-11-27T11:02:13.630Z,1007.08
2016-11-27T11:03:25.072Z,1007.06
2016-11-27T11:04:35.159Z,1007.01
2016-11-27T11:05:47.336Z,1007.02
2016-11-27T11:06:58.018Z,1007.03
2016-11-27T11:08:10.472Z,1007.01
2016-11-27T11:09:22.164Z,1006.99
2016-11-27T11:10:34.293Z,1007.02
2016-11-27T11:11:46.052Z,1007
2016-11-27T11:12:57.597Z,1006.98
2016-11-27T11:14:08.745Z,1006.97
2016-11-27T11:15:20.576Z,1006.96
2016-11-27T11:16:30.893Z,1006.96
2016-11-27T11:17:41.867Z,1006.96
2016-11-27T11:18:53.463Z,1006.96
2016-11-27T11:20:03.182Z,1006.98
2016-11-27T11:21:14.073Z,1006.97
2016-11-27T11:22:24.780Z,1006.97
2016-11-27T11:23:36.670Z,1007.01
2016-11-27T11:24:48.019Z,1007.05
2016-11-27T11:26:00.153Z,1006.99
2016-11-27T11:27:11.446Z,1006.99
2016-11-27T11:28:22.634Z,1006.96
2016-11-27T11:29:35.415Z,1006.98
2016-11-27T11:30:46.854Z,1006.97
2016-11-27T11:31:57.455Z,1006.98
2016-11-27T11:33:08.870Z,1006.93
2016-11-27T11:34:21.397Z,1006.97
2016-11-27T11:35:33.761Z,1006.91
2016-11-27T11:36:43.876Z,1006.89
2016-11-27T11:37:56.153Z,1006.88
2016-11-27T11:39:07.718Z,1006.84
2016-11-27T11:40:18.961Z,1006.82
2016-11-27T11:41:31.628Z,1006.8
2016-11-27T11:42:43.573Z,1006.76
2016-11-27T11:43:55.666Z,1006.8
2016-11-27T11:45:08.225Z,1006.74
2016-11-27T11:46:19.780Z,1006.72
2016-11-27T11:47:31.742Z,1006.74
2016-11-27T11:48:43.822Z,1006.73
2016-11-27T11:49:55.272Z,1006.75
2016-11-27T11:51:06.669Z,1006.68
2016-11-27T11:52:17.738Z,1006.69
2016-11-27T11:53:29.809Z,1006.68
2016-11-27T11:54:41.493Z,1006.68
2016-11-27T11:55:52.621Z,1006.67
2016-11-27T11:57:04.086Z,1006.67
2016-11-27T11:58:16.034Z,1006.67
2016-11-27T11:59:28.022Z,1006.72
2016-11-27T12:00:40.272Z,1006.76
2016-11-27T12:01:52.828Z,1006.73
2016-11-27T12:03:04.442Z,1006.68
2016-11-27T12:04:15.385Z,1006.69
2016-11-27T12:05:26.558Z,1006.67
2016-11-27T12:06:37.759Z,1006.59
2016-11-27T12:07:49.573Z,1006.61
2016-11-27T12:09:01.286Z,1006.6
2016-11-27T12:10:13.967Z,1006.59
2016-11-27T12:11:25.885Z,1006.66
2016-11-27T12:12:37.440Z,1006.66
2016-11-27T12:13:47.941Z,1006.64
2016-11-27T12:14:59.060Z,1006.56
2016-11-27T12:16:10.464Z,1006.51
2016-11-27T12:17:22.903Z,1006.54
2016-11-27T12:18:34.485Z,1006.48
2016-11-27T12:19:45.961Z,1006.42
2016-11-27T12:20:58.051Z,1006.49
2016-11-27T12:22:10.576Z,1006.47
2016-11-27T12:23:21.085Z,1006.44
2016-11-27T12:24:33.288Z,1006.45
2016-11-27T12:25:45.088Z,1006.47
2016-11-27T12:26:55.675Z,1006.47
2016-11-27T12:28:07.206Z,1006.54
2016-11-27T12:29:18.185Z,1006.51
2016-11-27T12:30:29.650Z,1006.4
2016-11-27T12:31:41.476Z,1006.45
2016-11-27T12:32:53.680Z,1006.46
2016-11-27T12:34:06.003Z,1006.49
2016-11-27T12:35:18.336Z,1006.42
2016-11-27T12:36:30.770Z,1006.43
2016-11-27T12:37:42.854Z,1006.35
2016-11-27T12:38:54.164Z,1006.31
2016-11-27T12:40:05.515Z,1006.32
2016-11-27T12:41:16.747Z,1006.33
2016-11-27T12:42:28.951Z,1006.33
2016-11-27T12:43:40.544Z,1006.37
2016-11-27T12:44:51.917Z,1006.24
2016-11-27T12:46:03.339Z,1006.29
2016-11-27T12:47:15.014Z,1006.26
2016-11-27T12:48:27.699Z,1006.26
2016-11-27T12:49:38.517Z,1006.17
2016-11-27T12:50:51.232Z,1006.21
2016-11-27T12:52:03.566Z,1006.25
2016-11-27T12:53:16.740Z,1006.24
2016-11-27T12:54:28.072Z,1006.21
2016-11-27T12:55:40.676Z,1006.15
2016-11-27T12:56:52.823Z,1006.24
2016-11-27T12:58:03.642Z,1006.14
2016-11-27T12:59:15.752Z,1006.15
2016-11-27T13:00:27.636Z,1006.15
2016-11-27T13:01:40.355Z,1006.12
2016-11-27T13:02:51.339Z,1006.12
2016-11-27T13:04:02.412Z,1006.03
2016-11-27T13:05:14.770Z,1006
2016-11-27T13:06:27.463Z,1006.02
2016-11-27T13:07:39.036Z,1006.01
2016-11-27T13:08:49.986Z,1006.02
2016-11-27T13:10:01.379Z,1006.04
2016-11-27T13:11:11.982Z,1006.04
2016-11-27T13:12:23.176Z,1006.02
2016-11-27T13:13:34.422Z,1006
2016-11-27T13:14:45.633Z,1006.04
2016-11-27T13:15:57.607Z,1006.03
2016-11-27T13:17:08.813Z,1006.04
2016-11-27T13:18:20.355Z,1006
2016-11-27T13:19:32.974Z,1005.95
2016-11-27T13:20:45.097Z,1006.07
2016-11-27T13:21:55.582Z,1006.01
2016-11-27T13:23:07.494Z,1005.99
2016-11-27T13:24:18.735Z,1005.96
2016-11-27T13:25:29.479Z,1006
2016-11-27T13:26:40.255Z,1005.94
2016-11-27T13:27:52.806Z,1005.97
2016-11-27T13:29:04.225Z,1005.96
2016-11-27T13:30:15.553Z,1005.96
2016-11-27T13:31:28.144Z,1005.98
2016-11-27T13:32:39.457Z,1005.95
2016-11-27T13:33:50.010Z,1005.94
2016-11-27T13:35:01.650Z,1005.91
2016-11-27T13:36:14.087Z,1006.01
2016-11-27T13:37:25.672Z,1005.98
2016-11-27T13:38:38.091Z,1005.91
2016-11-27T13:39:50.148Z,1005.91
2016-11-27T13:41:02.136Z,1005.93
2016-11-27T13:42:14.024Z,1005.91
2016-11-27T13:43:25.068Z,1005.94
2016-11-27T13:44:36.655Z,1005.93
2016-11-27T13:45:49.082Z,1005.91
2016-11-27T13:47:01.813Z,1005.89
2016-11-27T13:48:13.858Z,1005.9
2016-11-27T13:49:26.285Z,1005.87
2016-11-27T13:50:37.435Z,1005.86
2016-11-27T13:51:48.554Z,1005.82
2016-11-27T13:53:00.298Z,1005.87
2016-11-27T13:54:12.503Z,1005.87
2016-11-27T13:55:23.508Z,1005.84
2016-11-27T13:56:36.689Z,1005.87
2016-11-27T13:57:49.803Z,1005.85
2016-11-27T13:59:01.482Z,1005.83
2016-11-27T14:00:11.878Z,1005.84
2016-11-27T14:01:23.918Z,1005.83
2016-11-27T14:02:35.967Z,1005.78
2016-11-27T14:03:47.558Z,1005.87
2016-11-27T14:04:59.489Z,1005.81
2016-11-27T14:06:10.630Z,1005.77
2016-11-27T14:07:22.471Z,1005.84
2016-11-27T14:08:32.694Z,1005.85
2016-11-27T14:09:44.552Z,1005.83
2016-11-27T14:10:56.764Z,1005.83
2016-11-27T14:12:10.039Z,1005.89
2016-11-27T14:13:21.654Z,1005.92
2016-11-27T14:14:33.648Z,1005.95
2016-11-27T14:15:44.962Z,1005.86
2016-11-27T14:16:56.618Z,1005.94
2016-11-27T14:18:07.836Z,1005.99
2016-11-27T14:19:18.409Z,1005.93
2016-11-27T14:20:30.640Z,1005.9
2016-11-27T14:21:41.997Z,1005.91
2016-11-27T14:22:53.200Z,1005.9
2016-11-27T14:24:04.872Z,1005.89
2016-11-27T14:25:15.444Z,1005.99
2016-11-27T14:26:26.680Z,1006.02
2016-11-27T14:27:39.346Z,1005.99
2016-11-27T14:28:51.880Z,1006.02
2016-11-27T14:30:03.671Z,1006.04
2016-11-27T14:31:14.016Z,1005.98
2016-11-27T14:32:25.031Z,1005.96
2016-11-27T14:33:36.579Z,1005.85
2016-11-27T14:34:48.324Z,1005.89
2016-11-27T14:36:00.967Z,1005.91
2016-11-27T14:37:12.711Z,1005.88
2016-11-27T14:38:24.272Z,1005.85
2016-11-27T14:39:36.569Z,1005.95
2016-11-27T14:40:49.266Z,1005.91
2016-11-27T14:42:01.101Z,1005.86
2016-11-27T14:43:13.021Z,1005.9
2016-11-27T14:44:24.487Z,1005.89
2016-11-27T14:45:35.980Z,1005.88